الصفحة الرئيسية
METAR-TAF:

METAR-TAF

مطار :

بورت مورسبي, بابوا نيو غينياالجديدة

دائرة عرض: 09-26S, خط طول: 147-13E, ارتفاع: 38 متر

مراقبة الطقس الحالي

تاريخ ووقت الإصدار 16ساعات و 26 دقيقة قبل الساعة 13:00UTC
ريح 4 عقدة من الشمال
درجة الحرارة 25°درجة مئوية
الرطوبة 89%
ضغط 1008 hPa
الرؤية 10 كم أو أكثر

METAR: AYPY 201300Z 36004KT 9999 25/23 Q1008 RMK: NIL CLD DETECTED

زمن: 15:26 (05:26 UTC)

توقعات

تاريخ ووقت الإصدار 19ساعات و 19 دقيقة قبل الساعة 10:07UTC
التوقعات صالحة من20 الساعة 12 UTC إلى 21 الساعة 12 UTC
ريح عقدة من الشمال
الرؤية 10 كم أو أكثر
غيوم متفرقة على ارتفاع 4000 قدم
من 20 الساعة 2100 UTC
ريح 5 عقدة من الشمال الغربي
الرؤية 10 كم أو أكثر
غيوم قليلة على ارتفاع 1700 قدم
غيوم متفرقة على ارتفاع 4000 قدم

TAF: AYPY 201007Z 2012/2112 00000KT 9999 SCT040 FM202100 32005KT 9999 FEW017 SCT040

أرصاد الطقس والتوقعات من أكثر من 4000 مطار (تقارير الطقس للمطار METAR والتنبؤ بالطقس بالمطارTAF).

المحطات المتاحة هي النقط الصفراء والحمراء على الخريطة.

حرك المؤشر فوق النقطة لمعرفة اسم المحطة.

ثم انقر لمعرفة أرصاد وتوقعات الطقس.

لتغيير الخارطة: اضغط على الأزرار الخضراء مع رمز الصليب الأسود للتكبير. على الزر الأخضر مع شرطة للتصغير، أو على الأسهم الخضراء للخرائط المجاورة.


METAR-TAF: